Time;durP1;ratioP1;P1;durP2;ratioP2;P2;SDS_P1;SDS_P2;PMS_P1;PMS_P2;Temp;Humidity;BMP_temperature;BMP_pressure;BME280_temperature;BME280_humidity;BME280_pressure;Samples;Min_cycle;Max_cycle;Signal;HPM_P1;HPM_P2
2021/12/19 00:00:16;;;;;;;0.20;0.20;;;;;;;;;;5041634;28;20561;-78
2021/12/19 00:03:06;;;;;;;0.30;0.30;;;;;;;;;;5045022;28;20491;-78
2021/12/19 00:08:28;;;;;;;0.10;0.10;;;;;;;;;;5038850;28;20075;-79
2021/12/19 00:10:55;;;;;;;0.13;0.13;;;;;;;;;;5041679;28;20029;-78
2021/12/19 00:13:24;;;;;;;2.90;0.75;;;;;;;;;;5038223;28;20109;-78
2021/12/19 00:15:50;;;;;;;0.10;0.10;;;;;;;;;;5044989;28;20025;-78
2021/12/19 00:18:16;;;;;;;1.20;0.73;;;;;;;;;;5047049;28;20094;-80
2021/12/19 00:20:42;;;;;;;0.47;0.47;;;;;;;;;;5051938;28;20510;-79
2021/12/19 00:23:08;;;;;;;0.20;0.20;;;;;;;;;;5047437;28;20043;-80
2021/12/19 00:25:34;;;;;;;1.08;0.43;;;;;;;;;;5043332;28;20064;-80
2021/12/19 00:28:00;;;;;;;0.55;0.55;;;;;;;;;;5043393;28;20129;-80
2021/12/19 00:30:26;;;;;;;0.68;0.68;;;;;;;;;;5044473;28;20025;-80
2021/12/19 00:32:53;;;;;;;0.13;0.13;;;;;;;;;;5044425;28;20037;-80
2021/12/19 00:35:19;;;;;;;0.20;0.20;;;;;;;;;;5046321;28;20449;-80
2021/12/19 00:37:45;;;;;;;0.15;0.15;;;;;;;;;;5045943;28;20124;-79
2021/12/19 00:40:11;;;;;;;0.13;0.13;;;;;;;;;;5040531;28;20087;-81
2021/12/19 00:42:38;;;;;;;1.25;1.17;;;;;;;;;;5047221;28;20036;-80
2021/12/19 00:45:15;;;;;;;0.10;0.10;;;;;;;;;;5044494;28;20045;-81
2021/12/19 00:47:42;;;;;;;0.13;0.13;;;;;;;;;;5045725;28;20279;-81
2021/12/19 00:50:08;;;;;;;0.30;0.30;;;;;;;;;;5046631;28;20029;-80
2021/12/19 00:52:34;;;;;;;0.43;0.43;;;;;;;;;;5042578;28;20025;-79
2021/12/19 00:55:00;;;;;;;1.15;1.05;;;;;;;;;;5043096;28;20029;-79
2021/12/19 00:57:26;;;;;;;0.20;0.20;;;;;;;;;;5058276;28;20039;-79
2021/12/19 00:59:52;;;;;;;0.37;0.37;;;;;;;;;;5046282;28;20154;-79
2021/12/19 01:02:18;;;;;;;0.30;0.30;;;;;;;;;;5046222;28;20060;-79
2021/12/19 01:04:44;;;;;;;0.20;0.20;;;;;;;;;;5041305;28;20044;-79
2021/12/19 01:07:10;;;;;;;0.20;0.20;;;;;;;;;;5057375;28;20401;-78
2021/12/19 01:09:36;;;;;;;0.30;0.30;;;;;;;;;;5047389;28;20272;-78
2021/12/19 01:12:03;;;;;;;0.20;0.20;;;;;;;;;;5028209;28;20487;-80
2021/12/19 01:14:29;;;;;;;0.10;0.10;;;;;;;;;;5038871;28;20538;-78
2021/12/19 01:16:55;;;;;;;0.88;0.55;;;;;;;;;;5044175;28;20025;-78
2021/12/19 01:19:22;;;;;;;0.10;0.10;;;;;;;;;;5042220;28;20404;-79
2021/12/19 01:21:48;;;;;;;;;;;;;;;;;;5042698;28;20033;-78
2021/12/19 01:24:14;;;;;;;0.20;0.20;;;;;;;;;;5043709;28;19932;-78
2021/12/19 01:26:42;;;;;;;0.20;0.20;;;;;;;;;;5043802;28;20048;-77
2021/12/19 01:29:09;;;;;;;0.10;0.10;;;;;;;;;;5045880;28;20029;-78
2021/12/19 01:31:35;;;;;;;0.38;0.38;;;;;;;;;;5042611;28;20036;-77
2021/12/19 01:34:01;;;;;;;0.10;0.10;;;;;;;;;;5024987;28;20044;-77
2021/12/19 01:36:27;;;;;;;0.70;0.70;;;;;;;;;;5045865;28;20028;-78
2021/12/19 01:38:53;;;;;;;0.35;0.35;;;;;;;;;;5043846;28;20495;-77
2021/12/19 01:41:19;;;;;;;1.35;0.75;;;;;;;;;;5043952;28;20025;-77
2021/12/19 01:43:46;;;;;;;1.33;0.65;;;;;;;;;;5043502;28;20131;-77
2021/12/19 01:46:12;;;;;;;0.10;0.10;;;;;;;;;;5039135;28;20743;-77
2021/12/19 01:48:38;;;;;;;2.15;0.75;;;;;;;;;;5041741;28;20039;-77
2021/12/19 01:51:04;;;;;;;0.17;0.17;;;;;;;;;;5046843;28;20110;-77
2021/12/19 01:53:30;;;;;;;0.23;0.23;;;;;;;;;;5047303;28;20424;-78
2021/12/19 01:55:57;;;;;;;1.10;0.60;;;;;;;;;;5046925;28;20028;-78
2021/12/19 01:58:23;;;;;;;0.10;0.10;;;;;;;;;;5044250;28;20108;-78
2021/12/19 02:00:51;;;;;;;0.10;0.10;;;;;;;;;;5048025;28;20125;-78
2021/12/19 02:03:17;;;;;;;0.40;0.40;;;;;;;;;;5049423;28;20059;-78
2021/12/19 02:05:43;;;;;;;1.30;0.85;;;;;;;;;;5046450;28;20041;-77
2021/12/19 02:08:10;;;;;;;0.10;0.10;;;;;;;;;;5047394;28;20086;-78
2021/12/19 02:10:37;;;;;;;0.20;0.20;;;;;;;;;;5043798;28;21816;-78
2021/12/19 02:13:04;;;;;;;0.20;0.20;;;;;;;;;;5050368;28;20480;-79
2021/12/19 02:15:30;;;;;;;;;;;;;;;;;;5049075;28;20044;-78
2021/12/19 02:17:58;;;;;;;0.60;0.60;;;;;;;;;;5047220;28;19916;-78
2021/12/19 02:20:26;;;;;;;0.10;0.10;;;;;;;;;;5047761;28;20029;-79
2021/12/19 02:22:52;;;;;;;0.10;0.10;;;;;;;;;;5047189;28;20098;-78
2021/12/19 02:25:19;;;;;;;0.10;0.10;;;;;;;;;;5044064;28;20501;-78
2021/12/19 02:27:45;;;;;;;0.22;0.22;;;;;;;;;;5052794;28;20044;-79
2021/12/19 02:30:12;;;;;;;0.47;0.47;;;;;;;;;;5047165;28;20056;-78
2021/12/19 02:32:40;;;;;;;0.20;0.20;;;;;;;;;;5047052;28;20032;-78
2021/12/19 02:35:09;;;;;;;0.10;0.10;;;;;;;;;;5043576;28;20067;-79
2021/12/19 02:40:30;;;;;;;0.38;0.38;;;;;;;;;;5052343;28;20680;-78
2021/12/19 02:48:29;;;;;;;0.20;0.20;;;;;;;;;;5048796;28;20083;-79
2021/12/19 02:50:55;;;;;;;0.20;0.20;;;;;;;;;;5048894;28;20037;-80
2021/12/19 02:53:32;;;;;;;0.63;0.63;;;;;;;;;;5046545;28;20021;-80
2021/12/19 02:55:58;;;;;;;0.50;0.50;;;;;;;;;;5048291;28;20293;-80
2021/12/19 02:58:24;;;;;;;0.10;0.10;;;;;;;;;;5043568;28;20827;-80
2021/12/19 03:00:51;;;;;;;0.20;0.20;;;;;;;;;;5056034;28;20056;-79
2021/12/19 03:03:17;;;;;;;0.22;0.22;;;;;;;;;;5030480;28;20114;-80
2021/12/19 03:05:43;;;;;;;0.32;0.32;;;;;;;;;;5046198;28;20043;-80
2021/12/19 03:08:10;;;;;;;0.40;0.40;;;;;;;;;;5046276;28;20036;-81
2021/12/19 03:18:53;;;;;;;0.80;0.80;;;;;;;;;;4980371;28;21063;-78
2021/12/19 03:21:24;;;;;;;0.60;0.60;;;;;;;;;;4984042;28;20528;-78
2021/12/19 03:23:50;;;;;;;0.30;0.30;;;;;;;;;;4979965;28;20050;-78
2021/12/19 03:26:16;;;;;;;0.50;0.50;;;;;;;;;;4978745;28;20138;-79
2021/12/19 03:28:42;;;;;;;0.10;0.10;;;;;;;;;;4967005;28;20030;-78
2021/12/19 03:31:08;;;;;;;0.40;0.40;;;;;;;;;;4981524;28;20796;-78
2021/12/19 03:33:38;;;;;;;0.10;0.10;;;;;;;;;;4978364;28;20584;-78
2021/12/19 03:36:04;;;;;;;0.10;0.10;;;;;;;;;;4977830;28;20173;-78
2021/12/19 03:38:32;;;;;;;0.10;0.10;;;;;;;;;;4977505;28;20042;-78
2021/12/19 03:43:36;;;;;;;0.20;0.20;;;;;;;;;;4980965;28;20551;-78
2021/12/19 03:46:02;;;;;;;0.13;0.13;;;;;;;;;;4976631;28;20117;-78
2021/12/19 03:48:29;;;;;;;0.20;0.20;;;;;;;;;;4984082;28;20038;-78
2021/12/19 03:50:55;;;;;;;0.10;0.10;;;;;;;;;;5024530;28;20033;-79
2021/12/19 03:53:22;;;;;;;0.35;0.35;;;;;;;;;;5025319;28;20071;-78
2021/12/19 03:55:48;;;;;;;0.20;0.20;;;;;;;;;;5022290;28;20029;-79
2021/12/19 03:58:14;;;;;;;0.20;0.20;;;;;;;;;;5036605;28;20033;-79
2021/12/19 04:00:42;;;;;;;0.10;0.10;;;;;;;;;;5027466;28;20857;-78
2021/12/19 04:03:10;;;;;;;0.20;0.20;;;;;;;;;;5033330;28;20083;-79
2021/12/19 04:05:42;;;;;;;0.20;0.20;;;;;;;;;;5029515;28;20033;-79
2021/12/19 04:08:08;;;;;;;0.20;0.20;;;;;;;;;;5024978;28;20029;-79
2021/12/19 04:10:34;;;;;;;0.90;0.47;;;;;;;;;;5020324;28;20037;-79
2021/12/19 04:13:00;;;;;;;0.40;0.40;;;;;;;;;;5038628;28;20025;-78
2021/12/19 04:15:27;;;;;;;0.10;0.10;;;;;;;;;;5025939;28;20033;-79
2021/12/19 04:17:53;;;;;;;0.10;0.10;;;;;;;;;;5025019;28;20805;-80
2021/12/19 04:20:19;;;;;;;0.52;0.52;;;;;;;;;;5027234;28;20059;-80
2021/12/19 04:22:46;;;;;;;0.20;0.20;;;;;;;;;;5034158;28;20033;-79
2021/12/19 04:25:12;;;;;;;;;;;;;;;;;;5037634;28;20148;-78
2021/12/19 04:27:39;;;;;;;0.20;0.20;;;;;;;;;;5028548;28;20008;-79
2021/12/19 04:30:06;;;;;;;0.20;0.20;;;;;;;;;;5026922;28;20416;-77
2021/12/19 04:32:37;;;;;;;;;;;;;;;;;;5025580;28;20036;-77
2021/12/19 04:35:03;;;;;;;0.52;0.50;;;;;;;;;;5024973;28;20416;-78
2021/12/19 04:40:30;;;;;;;0.25;0.25;;;;;;;;;;5005892;28;20055;-78
2021/12/19 04:53:51;;;;;;;0.10;0.10;;;;;;;;;;5044435;28;20041;-78
2021/12/19 04:56:41;;;;;;;0.25;0.25;;;;;;;;;;5045745;28;20103;-78
2021/12/19 04:59:46;;;;;;;0.35;0.35;;;;;;;;;;5044876;28;20180;-78
2021/12/19 05:15:14;;;;;;;0.47;0.30;;;;;;;;;;5044881;28;20043;-77
2021/12/19 05:17:40;;;;;;;0.38;0.38;;;;;;;;;;5044282;28;20059;-76
2021/12/19 05:22:44;;;;;;;1.38;1.27;;;;;;;;;;5042362;28;20129;-77
2021/12/19 05:25:14;;;;;;;0.17;0.17;;;;;;;;;;5041145;28;20044;-77
2021/12/19 05:27:47;;;;;;;0.10;0.10;;;;;;;;;;5047468;28;20021;-77
2021/12/19 05:30:14;;;;;;;0.77;0.63;;;;;;;;;;5058881;28;20086;-77
2021/12/19 05:32:41;;;;;;;0.10;0.10;;;;;;;;;;5046650;28;20032;-76
2021/12/19 05:35:09;;;;;;;0.38;0.38;;;;;;;;;;5029536;28;20457;-77
2021/12/19 05:45:50;;;;;;;0.10;0.10;;;;;;;;;;5053903;28;20118;-77
2021/12/19 05:48:16;;;;;;;0.20;0.20;;;;;;;;;;5046181;28;20072;-78
2021/12/19 05:50:42;;;;;;;0.30;0.30;;;;;;;;;;5047276;28;20048;-77
2021/12/19 05:53:10;;;;;;;0.20;0.20;;;;;;;;;;5048008;28;20032;-78
2021/12/19 05:55:36;;;;;;;0.32;0.32;;;;;;;;;;5059871;28;20051;-78
2021/12/19 05:58:02;;;;;;;0.63;0.57;;;;;;;;;;5046419;28;20107;-78
2021/12/19 06:00:29;;;;;;;0.10;0.10;;;;;;;;;;5048664;28;20475;-79
2021/12/19 06:02:55;;;;;;;;;;;;;;;;;;5049726;28;20037;-80
2021/12/19 06:05:21;;;;;;;0.10;0.10;;;;;;;;;;5048715;28;19991;-80
2021/12/19 06:07:48;;;;;;;0.10;0.10;;;;;;;;;;5046615;28;20025;-79
2021/12/19 06:10:14;;;;;;;0.43;0.43;;;;;;;;;;5028882;28;20043;-79
2021/12/19 06:12:41;;;;;;;0.63;0.63;;;;;;;;;;5050700;28;20056;-79
2021/12/19 06:15:08;;;;;;;;;;;;;;;;;;5047256;28;20033;-79
2021/12/19 06:17:35;;;;;;;0.10;0.10;;;;;;;;;;5040636;28;20339;-79
2021/12/19 06:20:01;;;;;;;0.50;0.50;;;;;;;;;;5048923;28;20029;-79
2021/12/19 06:22:27;;;;;;;1.30;0.57;;;;;;;;;;5044902;28;20033;-79
2021/12/19 06:24:53;;;;;;;0.20;0.20;;;;;;;;;;5047362;28;20047;-79
2021/12/19 06:27:19;;;;;;;0.20;0.20;;;;;;;;;;5047537;28;20028;-80
2021/12/19 06:29:45;;;;;;;0.10;0.10;;;;;;;;;;5046491;28;20492;-80
2021/12/19 06:32:11;;;;;;;0.10;0.10;;;;;;;;;;5046454;28;20025;-79
2021/12/19 06:34:37;;;;;;;0.13;0.13;;;;;;;;;;5045121;28;20059;-79
2021/12/19 06:37:08;;;;;;;0.37;0.37;;;;;;;;;;5045027;28;20036;-80
2021/12/19 06:39:35;;;;;;;0.20;0.20;;;;;;;;;;5049103;28;20033;-80
2021/12/19 06:42:01;;;;;;;0.70;0.45;;;;;;;;;;5046861;28;20052;-79
2021/12/19 06:44:27;;;;;;;0.20;0.20;;;;;;;;;;5035496;28;20064;-79
2021/12/19 06:46:53;;;;;;;0.40;0.40;;;;;;;;;;5036316;28;20029;-80
2021/12/19 06:49:19;;;;;;;0.30;0.30;;;;;;;;;;5043176;28;20044;-80
2021/12/19 06:51:45;;;;;;;0.38;0.38;;;;;;;;;;5049600;28;20028;-80
2021/12/19 06:54:11;;;;;;;0.10;0.10;;;;;;;;;;5046879;28;20033;-78
2021/12/19 06:56:37;;;;;;;0.20;0.20;;;;;;;;;;5044924;28;20028;-78
2021/12/19 06:59:03;;;;;;;0.20;0.20;;;;;;;;;;5057187;28;20055;-79
2021/12/19 07:01:29;;;;;;;0.50;0.50;;;;;;;;;;5043788;28;20025;-79
2021/12/19 07:03:55;;;;;;;0.10;0.10;;;;;;;;;;5047110;28;20398;-78
2021/12/19 07:06:21;;;;;;;0.10;0.10;;;;;;;;;;5047631;28;20072;-78
2021/12/19 07:08:48;;;;;;;0.10;0.10;;;;;;;;;;5054172;28;20466;-79
2021/12/19 07:11:14;;;;;;;0.20;0.20;;;;;;;;;;5053982;28;20158;-80
2021/12/19 07:13:40;;;;;;;0.65;0.50;;;;;;;;;;5046960;28;20120;-79
2021/12/19 07:16:09;;;;;;;0.47;0.47;;;;;;;;;;5060714;28;20128;-79
2021/12/19 07:18:36;;;;;;;0.10;0.10;;;;;;;;;;5027802;28;20025;-78
2021/12/19 07:21:03;;;;;;;0.20;0.20;;;;;;;;;;5044825;28;20029;-79
2021/12/19 07:23:30;;;;;;;0.30;0.30;;;;;;;;;;5046054;28;20021;-78
2021/12/19 07:25:56;;;;;;;0.40;0.40;;;;;;;;;;5041494;28;20055;-77
2021/12/19 07:28:22;;;;;;;0.20;0.20;;;;;;;;;;5043793;28;20782;-78
2021/12/19 07:30:49;;;;;;;0.38;0.32;;;;;;;;;;5044146;28;20463;-78
2021/12/19 07:33:15;;;;;;;0.20;0.20;;;;;;;;;;5045850;28;20824;-80
2021/12/19 07:35:45;;;;;;;0.30;0.30;;;;;;;;;;5042734;28;20499;-77
2021/12/19 07:38:16;;;;;;;0.30;0.30;;;;;;;;;;5032463;28;20821;-77
2021/12/19 07:40:46;;;;;;;0.10;0.10;;;;;;;;;;5041625;28;20041;-77
2021/12/19 07:43:12;;;;;;;0.20;0.20;;;;;;;;;;5037149;28;20045;-78
2021/12/19 07:45:38;;;;;;;0.17;0.17;;;;;;;;;;5040099;28;20531;-79
2021/12/19 07:48:05;;;;;;;0.20;0.20;;;;;;;;;;5037791;28;20524;-78
2021/12/19 07:50:31;;;;;;;0.30;0.30;;;;;;;;;;5038797;28;20082;-77
2021/12/19 07:52:58;;;;;;;0.10;0.10;;;;;;;;;;5037502;28;20283;-78
2021/12/19 07:55:24;;;;;;;0.10;0.10;;;;;;;;;;5040644;28;20480;-78
2021/12/19 07:57:50;;;;;;;0.30;0.30;;;;;;;;;;5042481;28;20083;-78
2021/12/19 08:00:19;;;;;;;0.20;0.20;;;;;;;;;;5044010;28;20036;-78
2021/12/19 08:02:48;;;;;;;0.20;0.20;;;;;;;;;;5040180;28;20098;-78
2021/12/19 08:05:15;;;;;;;0.20;0.20;;;;;;;;;;5038475;28;20043;-78
2021/12/19 08:07:43;;;;;;;0.20;0.20;;;;;;;;;;5040881;28;20568;-78
2021/12/19 08:12:36;;;;;;;0.10;0.10;;;;;;;;;;5054159;28;20420;-80
2021/12/19 08:15:02;;;;;;;0.63;0.60;;;;;;;;;;5029978;28;20094;-82
2021/12/19 08:17:30;;;;;;;0.00;0.00;;;;;;;;;;5039655;28;20294;-81
2021/12/19 08:19:56;;;;;;;0.13;0.13;;;;;;;;;;5032539;28;20037;-82
2021/12/19 08:22:22;;;;;;;0.10;0.10;;;;;;;;;;5039776;28;20462;-80
2021/12/19 08:24:50;;;;;;;0.43;0.43;;;;;;;;;;5037953;28;20447;-79
2021/12/19 08:27:16;;;;;;;0.10;0.10;;;;;;;;;;5040543;28;20029;-77
2021/12/19 08:29:42;;;;;;;0.10;0.10;;;;;;;;;;5037592;28;20067;-79
2021/12/19 08:32:08;;;;;;;0.10;0.10;;;;;;;;;;5039919;28;20032;-77
2021/12/19 08:34:35;;;;;;;0.10;0.10;;;;;;;;;;5039440;28;20059;-78
2021/12/19 08:37:02;;;;;;;0.00;0.00;;;;;;;;;;5039315;28;20602;-76
2021/12/19 08:39:28;;;;;;;0.10;0.10;;;;;;;;;;5040784;28;20099;-79
2021/12/19 08:41:55;;;;;;;0.10;0.10;;;;;;;;;;5040752;28;20040;-78
2021/12/19 08:44:21;;;;;;;0.43;0.43;;;;;;;;;;5038998;28;20118;-79
2021/12/19 08:46:47;;;;;;;0.10;0.10;;;;;;;;;;5025342;28;20129;-79
2021/12/19 08:49:13;;;;;;;0.20;0.20;;;;;;;;;;5040493;28;20033;-78
2021/12/19 08:51:39;;;;;;;0.20;0.20;;;;;;;;;;5043407;28;20029;-78
2021/12/19 08:54:06;;;;;;;0.10;0.10;;;;;;;;;;5041408;28;20043;-79
2021/12/19 08:56:33;;;;;;;0.82;0.38;;;;;;;;;;5045394;28;20779;-80
2021/12/19 08:58:59;;;;;;;0.20;0.20;;;;;;;;;;5039676;28;20033;-81
2021/12/19 09:01:25;;;;;;;1.42;1.02;;;;;;;;;;5041627;28;20037;-81
2021/12/19 09:03:51;;;;;;;0.10;0.10;;;;;;;;;;5049668;28;20648;-81
2021/12/19 09:06:17;;;;;;;0.10;0.10;;;;;;;;;;5048980;28;20040;-81
2021/12/19 09:08:43;;;;;;;0.10;0.10;;;;;;;;;;5048007;28;20481;-81
2021/12/19 09:11:09;;;;;;;0.10;0.10;;;;;;;;;;5047989;28;20040;-81
2021/12/19 09:13:36;;;;;;;0.40;0.40;;;;;;;;;;5046317;28;20284;-81
2021/12/19 09:16:02;;;;;;;0.75;0.55;;;;;;;;;;5047833;28;20033;-81
2021/12/19 09:18:28;;;;;;;0.10;0.10;;;;;;;;;;5051556;28;20025;-81
2021/12/19 09:20:55;;;;;;;0.75;0.40;;;;;;;;;;5048525;28;20048;-81
2021/12/19 09:23:21;;;;;;;0.10;0.10;;;;;;;;;;5048223;28;20036;-81
2021/12/19 09:25:47;;;;;;;0.10;0.10;;;;;;;;;;5047864;28;20701;-81
2021/12/19 09:28:13;;;;;;;0.10;0.10;;;;;;;;;;5026648;28;20506;-81
2021/12/19 09:30:40;;;;;;;0.10;0.10;;;;;;;;;;5050794;28;20377;-82
2021/12/19 09:33:06;;;;;;;0.38;0.38;;;;;;;;;;5048120;28;20771;-81
2021/12/19 09:35:32;;;;;;;0.10;0.10;;;;;;;;;;5048224;28;20040;-81
2021/12/19 09:37:58;;;;;;;0.20;0.20;;;;;;;;;;5048233;28;20461;-81
2021/12/19 09:40:32;;;;;;;0.57;0.53;;;;;;;;;;5044616;28;20060;-81
2021/12/19 09:43:02;;;;;;;0.10;0.10;;;;;;;;;;5047899;28;20049;-81
2021/12/19 09:45:29;;;;;;;0.30;0.30;;;;;;;;;;5048806;28;20045;-81
2021/12/19 09:47:55;;;;;;;0.20;0.20;;;;;;;;;;5047713;28;20036;-81
2021/12/19 09:50:21;;;;;;;0.10;0.10;;;;;;;;;;5047644;28;20032;-81
2021/12/19 09:52:49;;;;;;;0.10;0.10;;;;;;;;;;5046956;28;20540;-81
2021/12/19 09:55:18;;;;;;;0.20;0.20;;;;;;;;;;5027541;28;20052;-81
2021/12/19 09:57:44;;;;;;;0.20;0.20;;;;;;;;;;5057736;28;20032;-81
2021/12/19 10:00:11;;;;;;;0.80;0.47;;;;;;;;;;5047935;28;20021;-81
2021/12/19 10:02:37;;;;;;;0.10;0.10;;;;;;;;;;5047620;28;20025;-81
2021/12/19 10:05:21;;;;;;;0.20;0.20;;;;;;;;;;5047437;28;20111;-81
2021/12/19 10:07:54;;;;;;;0.10;0.10;;;;;;;;;;5047039;28;20024;-81
2021/12/19 10:10:33;;;;;;;0.65;0.65;;;;;;;;;;5026416;28;20043;-81
2021/12/19 10:13:00;;;;;;;1.48;1.33;;;;;;;;;;5046691;28;20080;-81
2021/12/19 10:15:26;;;;;;;0.40;0.40;;;;;;;;;;5029256;28;20522;-81
2021/12/19 10:17:59;;;;;;;0.00;0.00;;;;;;;;;;5044577;28;20138;-80
2021/12/19 10:20:25;;;;;;;0.15;0.15;;;;;;;;;;5047243;28;20818;-81
2021/12/19 10:22:51;;;;;;;0.10;0.10;;;;;;;;;;5047099;28;20043;-81
2021/12/19 10:25:19;;;;;;;0.17;0.17;;;;;;;;;;5043064;28;20032;-82
2021/12/19 10:27:45;;;;;;;0.20;0.20;;;;;;;;;;5057605;28;20033;-81
2021/12/19 10:30:31;;;;;;;0.47;0.47;;;;;;;;;;5058303;28;20051;-81
2021/12/19 10:33:07;;;;;;;0.17;0.17;;;;;;;;;;5044790;28;20032;-81
2021/12/19 10:35:49;;;;;;;0.17;0.17;;;;;;;;;;5046616;28;20056;-81
2021/12/19 10:38:19;;;;;;;0.20;0.20;;;;;;;;;;5046847;28;20116;-81
2021/12/19 10:40:54;;;;;;;0.10;0.10;;;;;;;;;;5046171;28;20100;-81
2021/12/19 10:43:21;;;;;;;0.25;0.25;;;;;;;;;;5027050;28;20516;-80
2021/12/19 10:45:48;;;;;;;0.10;0.10;;;;;;;;;;5049417;28;20087;-81
2021/12/19 10:48:14;;;;;;;0.47;0.47;;;;;;;;;;5048321;28;20591;-81
2021/12/19 10:50:49;;;;;;;0.10;0.10;;;;;;;;;;5046326;28;20416;-80
2021/12/19 10:53:16;;;;;;;0.20;0.20;;;;;;;;;;5046345;28;20048;-81
2021/12/19 10:55:46;;;;;;;0.20;0.20;;;;;;;;;;5045202;28;20598;-81
2021/12/19 10:58:42;;;;;;;0.20;0.20;;;;;;;;;;5043354;28;20500;-81
2021/12/19 11:01:14;;;;;;;0.25;0.25;;;;;;;;;;4983946;28;20176;-81
2021/12/19 11:03:51;;;;;;;0.80;0.57;;;;;;;;;;5002405;28;20078;-81
2021/12/19 11:06:29;;;;;;;0.20;0.20;;;;;;;;;;5002115;28;20523;-80
2021/12/19 11:08:55;;;;;;;0.10;0.10;;;;;;;;;;4987803;28;20335;-81
2021/12/19 11:11:39;;;;;;;0.25;0.25;;;;;;;;;;4991800;28;20080;-81
2021/12/19 11:14:05;;;;;;;0.50;0.50;;;;;;;;;;4998884;28;20220;-81
2021/12/19 11:16:31;;;;;;;0.10;0.10;;;;;;;;;;4999198;28;20113;-81
2021/12/19 11:18:57;;;;;;;0.80;0.45;;;;;;;;;;5001095;28;20050;-81
2021/12/19 11:21:23;;;;;;;0.20;0.20;;;;;;;;;;4999958;28;20068;-81
2021/12/19 11:23:50;;;;;;;0.20;0.20;;;;;;;;;;4990054;28;20355;-81
2021/12/19 11:26:19;;;;;;;0.10;0.10;;;;;;;;;;4998806;28;20044;-81
2021/12/19 11:28:45;;;;;;;0.63;0.63;;;;;;;;;;4996554;28;20037;-81
2021/12/19 11:31:12;;;;;;;0.40;0.30;;;;;;;;;;4983467;28;20054;-81
2021/12/19 11:33:56;;;;;;;0.32;0.17;;;;;;;;;;4983239;28;20270;-80
2021/12/19 11:36:22;;;;;;;0.22;0.22;;;;;;;;;;4989075;28;20038;-81
2021/12/19 11:38:48;;;;;;;0.20;0.20;;;;;;;;;;5043535;28;20519;-80
2021/12/19 11:41:14;;;;;;;0.10;0.10;;;;;;;;;;5046861;28;20136;-81
2021/12/19 11:43:43;;;;;;;0.25;0.25;;;;;;;;;;5045303;28;20050;-81
2021/12/19 11:46:19;;;;;;;1.05;1.05;;;;;;;;;;5043049;28;20040;-81
2021/12/19 11:48:46;;;;;;;0.13;0.13;;;;;;;;;;5056310;28;20028;-81
2021/12/19 11:51:19;;;;;;;0.10;0.10;;;;;;;;;;5046786;28;20044;-81
2021/12/19 11:53:46;;;;;;;0.52;0.35;;;;;;;;;;5046774;28;20048;-81
2021/12/19 11:56:16;;;;;;;0.13;0.13;;;;;;;;;;5046746;28;20039;-81
2021/12/19 11:58:53;;;;;;;0.70;0.63;;;;;;;;;;5045587;28;20063;-81
2021/12/19 12:01:22;;;;;;;0.20;0.20;;;;;;;;;;5026771;28;20025;-81
2021/12/19 12:03:50;;;;;;;0.10;0.10;;;;;;;;;;5047473;28;20033;-80
2021/12/19 12:06:24;;;;;;;3.72;0.80;;;;;;;;;;5047330;28;20087;-81
2021/12/19 12:09:06;;;;;;;0.43;0.25;;;;;;;;;;5046636;28;20029;-81
2021/12/19 12:11:33;;;;;;;0.03;0.03;;;;;;;;;;5046828;28;20063;-80
2021/12/19 12:14:18;;;;;;;0.10;0.10;;;;;;;;;;5046554;28;20032;-81
2021/12/19 12:16:55;;;;;;;0.10;0.10;;;;;;;;;;5045739;28;20468;-81
2021/12/19 12:19:41;;;;;;;0.20;0.20;;;;;;;;;;5027262;28;20029;-81
2021/12/19 12:22:26;;;;;;;0.10;0.10;;;;;;;;;;5043177;28;20446;-80
2021/12/19 12:25:11;;;;;;;0.10;0.10;;;;;;;;;;5056156;28;20040;-81
2021/12/19 12:27:41;;;;;;;0.10;0.10;;;;;;;;;;5023232;28;20041;-81
2021/12/19 12:30:09;;;;;;;0.90;0.32;;;;;;;;;;5045311;28;20029;-81
2021/12/19 12:32:36;;;;;;;0.10;0.10;;;;;;;;;;5045848;28;20041;-81
2021/12/19 12:35:03;;;;;;;0.20;0.20;;;;;;;;;;5045740;28;20032;-81
2021/12/19 12:37:29;;;;;;;0.40;0.40;;;;;;;;;;5042908;28;20033;-81
2021/12/19 12:40:17;;;;;;;0.28;0.28;;;;;;;;;;5045363;28;20025;-81
2021/12/19 12:43:02;;;;;;;0.40;0.40;;;;;;;;;;5048098;28;20215;-81
2021/12/19 12:45:30;;;;;;;;;;;;;;;;;;5046802;28;20052;-81
2021/12/19 12:47:56;;;;;;;0.20;0.20;;;;;;;;;;5046325;28;19942;-81
2021/12/19 12:50:23;;;;;;;0.10;0.10;;;;;;;;;;5044598;28;20508;-81
2021/12/19 12:52:49;;;;;;;;;;;;;;;;;;5046393;28;20104;-81
2021/12/19 12:55:15;;;;;;;0.10;0.10;;;;;;;;;;5041474;28;20051;-81
2021/12/19 12:57:44;;;;;;;0.10;0.10;;;;;;;;;;5048020;28;20037;-81
2021/12/19 13:00:21;;;;;;;0.20;0.20;;;;;;;;;;5045980;28;20754;-81
2021/12/19 13:02:58;;;;;;;0.10;0.10;;;;;;;;;;5045837;28;20056;-81
2021/12/19 13:05:24;;;;;;;;;;;;;;;;;;5046362;28;20064;-81
2021/12/19 13:07:50;;;;;;;0.10;0.10;;;;;;;;;;5045625;28;20751;-81
2021/12/19 13:10:16;;;;;;;0.10;0.10;;;;;;;;;;5039195;28;20873;-81
2021/12/19 13:12:42;;;;;;;0.20;0.20;;;;;;;;;;5047525;28;20531;-80
2021/12/19 13:15:10;;;;;;;0.10;0.10;;;;;;;;;;5045596;28;20033;-81
2021/12/19 13:17:38;;;;;;;0.10;0.10;;;;;;;;;;5045616;28;20116;-81
2021/12/19 13:20:11;;;;;;;0.10;0.10;;;;;;;;;;5045682;28;20028;-81
2021/12/19 13:22:40;;;;;;;0.10;0.10;;;;;;;;;;5043730;28;20524;-80
2021/12/19 13:25:11;;;;;;;0.20;0.20;;;;;;;;;;5042378;28;20067;-81
2021/12/19 13:27:38;;;;;;;0.10;0.10;;;;;;;;;;5047601;28;20079;-81
2021/12/19 13:30:06;;;;;;;0.30;0.30;;;;;;;;;;5045453;28;20087;-81
2021/12/19 13:32:42;;;;;;;0.10;0.10;;;;;;;;;;5045434;28;20064;-81
2021/12/19 13:35:27;;;;;;;0.10;0.10;;;;;;;;;;5045333;28;20033;-81
2021/12/19 13:37:53;;;;;;;0.10;0.10;;;;;;;;;;5035365;28;20131;-81
2021/12/19 13:40:19;;;;;;;0.30;0.30;;;;;;;;;;5057024;28;20021;-81
2021/12/19 13:42:47;;;;;;;0.10;0.10;;;;;;;;;;5046783;28;20039;-81
2021/12/19 13:45:28;;;;;;;0.10;0.10;;;;;;;;;;5043813;28;20041;-81
2021/12/19 13:47:55;;;;;;;0.80;0.80;;;;;;;;;;5047613;28;20043;-81
2021/12/19 13:50:21;;;;;;;0.32;0.32;;;;;;;;;;5049144;28;20033;-81
2021/12/19 13:52:47;;;;;;;0.20;0.20;;;;;;;;;;5048691;28;20032;-81
2021/12/19 13:55:17;;;;;;;0.30;0.30;;;;;;;;;;5045011;28;20037;-81
2021/12/19 13:57:44;;;;;;;0.55;0.52;;;;;;;;;;5051033;28;20028;-81
2021/12/19 14:00:26;;;;;;;0.30;0.30;;;;;;;;;;5048861;28;20140;-81
2021/12/19 14:02:52;;;;;;;0.20;0.20;;;;;;;;;;5048663;28;20033;-80
2021/12/19 14:05:30;;;;;;;0.20;0.20;;;;;;;;;;5048823;28;20044;-81
2021/12/19 14:07:57;;;;;;;1.50;1.33;;;;;;;;;;5047545;28;20033;-81
2021/12/19 14:10:23;;;;;;;0.28;0.28;;;;;;;;;;5045048;28;20025;-81
2021/12/19 14:13:30;;;;;;;0.20;0.20;;;;;;;;;;5049720;28;20087;-81
2021/12/19 14:15:52;;;;;;;0.43;0.43;;;;;;;;;;5057257;28;20515;-81
2021/12/19 14:18:28;;;;;;;0.13;0.13;;;;;;;;;;5047553;28;20033;-81
2021/12/19 14:20:55;;;;;;;0.20;0.20;;;;;;;;;;5030102;28;20040;-80
2021/12/19 14:23:21;;;;;;;0.93;0.47;;;;;;;;;;5048378;28;20115;-81
2021/12/19 14:25:48;;;;;;;0.10;0.10;;;;;;;;;;5038679;28;20045;-81
2021/12/19 14:28:19;;;;;;;0.45;0.40;;;;;;;;;;5060032;28;20017;-81
2021/12/19 14:30:58;;;;;;;0.68;0.68;;;;;;;;;;5054540;28;20028;-80
2021/12/19 14:33:29;;;;;;;0.10;0.10;;;;;;;;;;5049254;28;20032;-81
2021/12/19 14:35:55;;;;;;;0.17;0.17;;;;;;;;;;5047925;28;20117;-81
2021/12/19 14:38:22;;;;;;;0.10;0.10;;;;;;;;;;5048047;28;20566;-80
2021/12/19 14:40:48;;;;;;;0.10;0.10;;;;;;;;;;5047797;28;20029;-81
2021/12/19 14:43:18;;;;;;;0.10;0.10;;;;;;;;;;5042858;28;20110;-81
2021/12/19 14:45:57;;;;;;;0.10;0.10;;;;;;;;;;5056987;28;20058;-81
2021/12/19 14:48:34;;;;;;;0.30;0.30;;;;;;;;;;5049919;28;20500;-81
2021/12/19 14:51:08;;;;;;;0.20;0.20;;;;;;;;;;5046292;28;20037;-81
2021/12/19 14:53:35;;;;;;;0.22;0.22;;;;;;;;;;5046345;28;20021;-80
2021/12/19 14:56:22;;;;;;;0.22;0.22;;;;;;;;;;5047454;28;20469;-81
2021/12/19 14:58:50;;;;;;;0.10;0.10;;;;;;;;;;5046897;28;20032;-80
2021/12/19 15:01:23;;;;;;;0.85;0.65;;;;;;;;;;5042828;28;20412;-81
2021/12/19 15:04:00;;;;;;;0.35;0.35;;;;;;;;;;5056773;28;20874;-81
2021/12/19 15:06:27;;;;;;;0.30;0.30;;;;;;;;;;5048756;28;20025;-81
2021/12/19 15:08:55;;;;;;;0.73;0.20;;;;;;;;;;5047267;28;20040;-80
2021/12/19 15:11:21;;;;;;;0.10;0.10;;;;;;;;;;5045920;28;20435;-80
2021/12/19 15:13:47;;;;;;;0.10;0.10;;;;;;;;;;5046879;28;20483;-80
2021/12/19 15:16:13;;;;;;;0.10;0.10;;;;;;;;;;5043366;28;20033;-80
2021/12/19 15:18:40;;;;;;;0.20;0.20;;;;;;;;;;5049228;28;20045;-81
2021/12/19 15:21:06;;;;;;;0.20;0.20;;;;;;;;;;5047177;28;20039;-81
2021/12/19 15:23:35;;;;;;;0.10;0.10;;;;;;;;;;5047221;28;20040;-81
2021/12/19 15:26:03;;;;;;;0.10;0.10;;;;;;;;;;5046992;28;20036;-80
2021/12/19 15:28:29;;;;;;;0.20;0.20;;;;;;;;;;5043952;28;20035;-81
2021/12/19 15:30:57;;;;;;;0.30;0.30;;;;;;;;;;5046798;28;20021;-81
2021/12/19 15:33:23;;;;;;;0.30;0.30;;;;;;;;;;5047952;28;20032;-81
2021/12/19 15:35:50;;;;;;;0.20;0.20;;;;;;;;;;5046592;28;20032;-81
2021/12/19 15:38:16;;;;;;;0.10;0.10;;;;;;;;;;5046855;28;20136;-81
2021/12/19 15:40:42;;;;;;;0.32;0.32;;;;;;;;;;5045648;28;20035;-80
2021/12/19 15:43:08;;;;;;;0.10;0.10;;;;;;;;;;5024951;28;20586;-81
2021/12/19 15:45:35;;;;;;;0.20;0.20;;;;;;;;;;5048626;28;20582;-81
2021/12/19 15:48:01;;;;;;;0.32;0.32;;;;;;;;;;5045288;28;20118;-80
2021/12/19 15:50:28;;;;;;;0.15;0.15;;;;;;;;;;5031213;28;20033;-81
2021/12/19 15:52:54;;;;;;;0.10;0.10;;;;;;;;;;5035485;28;20028;-80
2021/12/19 15:55:20;;;;;;;0.22;0.22;;;;;;;;;;5041952;28;20072;-81